sensor_id;sensor_type;location;lat;lon;timestamp;temperature;humidity
780;DHT22;373;49.342;8.146;2023-05-20T00:02:22;16.30;80.40
780;DHT22;373;49.342;8.146;2023-05-20T00:04:49;16.30;84.10
780;DHT22;373;49.342;8.146;2023-05-20T00:07:17;16.50;83.40
780;DHT22;373;49.342;8.146;2023-05-20T00:09:44;16.40;88.50
780;DHT22;373;49.342;8.146;2023-05-20T00:12:11;16.40;94.00
780;DHT22;373;49.342;8.146;2023-05-20T00:14:38;16.30;89.50
780;DHT22;373;49.342;8.146;2023-05-20T00:17:05;16.30;91.50
780;DHT22;373;49.342;8.146;2023-05-20T00:19:32;16.30;93.10
780;DHT22;373;49.342;8.146;2023-05-20T00:21:59;16.30;94.00
780;DHT22;373;49.342;8.146;2023-05-20T00:24:28;16.40;94.00
780;DHT22;373;49.342;8.146;2023-05-20T00:26:55;16.60;94.80
780;DHT22;373;49.342;8.146;2023-05-20T00:29:22;16.50;93.30
780;DHT22;373;49.342;8.146;2023-05-20T00:31:49;16.30;96.30
780;DHT22;373;49.342;8.146;2023-05-20T00:34:16;16.20;99.40
780;DHT22;373;49.342;8.146;2023-05-20T00:36:43;16.10;99.90
780;DHT22;373;49.342;8.146;2023-05-20T00:39:10;16.20;99.90
780;DHT22;373;49.342;8.146;2023-05-20T00:41:38;16.30;99.90
780;DHT22;373;49.342;8.146;2023-05-20T00:44:05;16.30;99.90
780;DHT22;373;49.342;8.146;2023-05-20T00:46:36;16.20;99.90
780;DHT22;373;49.342;8.146;2023-05-20T00:49:04;16.20;99.90
780;DHT22;373;49.342;8.146;2023-05-20T00:51:31;16.20;99.90
780;DHT22;373;49.342;8.146;2023-05-20T00:53:59;16.10;99.90
780;DHT22;373;49.342;8.146;2023-05-20T00:56:26;16.00;99.90
780;DHT22;373;49.342;8.146;2023-05-20T00:58:55;15.90;99.90
780;DHT22;373;49.342;8.146;2023-05-20T01:01:22;15.80;99.90
780;DHT22;373;49.342;8.146;2023-05-20T01:03:50;15.90;99.90
780;DHT22;373;49.342;8.146;2023-05-20T01:06:17;16.00;99.90
780;DHT22;373;49.342;8.146;2023-05-20T01:08:45;15.80;99.90
780;DHT22;373;49.342;8.146;2023-05-20T01:11:15;15.70;99.90
780;DHT22;373;49.342;8.146;2023-05-20T01:13:46;15.60;99.90
780;DHT22;373;49.342;8.146;2023-05-20T01:16:17;15.60;99.90
780;DHT22;373;49.342;8.146;2023-05-20T01:18:46;15.60;99.90
780;DHT22;373;49.342;8.146;2023-05-20T01:21:14;15.60;99.90
780;DHT22;373;49.342;8.146;2023-05-20T01:23:44;15.60;99.90
780;DHT22;373;49.342;8.146;2023-05-20T01:26:11;15.60;99.90
780;DHT22;373;49.342;8.146;2023-05-20T01:28:40;15.50;99.90
780;DHT22;373;49.342;8.146;2023-05-20T01:31:13;15.40;99.90
780;DHT22;373;49.342;8.146;2023-05-20T01:33:41;15.40;99.90
780;DHT22;373;49.342;8.146;2023-05-20T01:36:09;15.50;99.90
780;DHT22;373;49.342;8.146;2023-05-20T01:38:37;15.40;99.90
780;DHT22;373;49.342;8.146;2023-05-20T01:41:06;15.40;99.90
780;DHT22;373;49.342;8.146;2023-05-20T01:43:39;15.50;99.90
780;DHT22;373;49.342;8.146;2023-05-20T01:46:06;15.30;99.90
780;DHT22;373;49.342;8.146;2023-05-20T01:48:33;15.20;99.90
780;DHT22;373;49.342;8.146;2023-05-20T01:51:00;15.00;99.90
780;DHT22;373;49.342;8.146;2023-05-20T01:53:27;15.10;99.90
780;DHT22;373;49.342;8.146;2023-05-20T01:55:54;15.00;99.90
780;DHT22;373;49.342;8.146;2023-05-20T01:58:23;15.10;99.90
780;DHT22;373;49.342;8.146;2023-05-20T02:00:50;15.10;99.90
780;DHT22;373;49.342;8.146;2023-05-20T02:03:17;15.10;99.90
780;DHT22;373;49.342;8.146;2023-05-20T02:05:44;15.00;99.90
780;DHT22;373;49.342;8.146;2023-05-20T02:08:11;15.20;99.90
780;DHT22;373;49.342;8.146;2023-05-20T02:10:38;15.10;99.90
780;DHT22;373;49.342;8.146;2023-05-20T02:13:05;15.00;99.90
780;DHT22;373;49.342;8.146;2023-05-20T02:15:34;15.10;99.90
780;DHT22;373;49.342;8.146;2023-05-20T02:18:01;14.90;99.90
780;DHT22;373;49.342;8.146;2023-05-20T02:20:30;14.90;1.00
780;DHT22;373;49.342;8.146;2023-05-20T02:22:57;14.80;1.00
780;DHT22;373;49.342;8.146;2023-05-20T02:25:24;14.70;1.00
780;DHT22;373;49.342;8.146;2023-05-20T02:27:51;14.60;1.00
780;DHT22;373;49.342;8.146;2023-05-20T02:30:19;14.60;1.00
780;DHT22;373;49.342;8.146;2023-05-20T02:32:47;14.50;1.00
780;DHT22;373;49.342;8.146;2023-05-20T02:35:15;14.40;1.00
780;DHT22;373;49.342;8.146;2023-05-20T02:37:42;14.40;1.00
780;DHT22;373;49.342;8.146;2023-05-20T02:40:10;14.40;1.00
780;DHT22;373;49.342;8.146;2023-05-20T02:42:38;14.30;1.00
780;DHT22;373;49.342;8.146;2023-05-20T02:45:07;14.30;1.00
780;DHT22;373;49.342;8.146;2023-05-20T02:47:34;14.10;68.70
780;DHT22;373;49.342;8.146;2023-05-20T02:50:03;14.00;99.90
780;DHT22;373;49.342;8.146;2023-05-20T02:52:30;13.90;99.90
780;DHT22;373;49.342;8.146;2023-05-20T02:54:57;13.90;99.90
780;DHT22;373;49.342;8.146;2023-05-20T02:57:24;13.80;99.90
780;DHT22;373;49.342;8.146;2023-05-20T02:59:52;13.80;99.90
780;DHT22;373;49.342;8.146;2023-05-20T03:02:19;13.70;1.00
780;DHT22;373;49.342;8.146;2023-05-20T03:04:48;13.80;1.00
780;DHT22;373;49.342;8.146;2023-05-20T03:07:16;13.80;1.00
780;DHT22;373;49.342;8.146;2023-05-20T03:09:46;13.70;1.00
780;DHT22;373;49.342;8.146;2023-05-20T03:12:13;13.70;1.00
780;DHT22;373;49.342;8.146;2023-05-20T03:14:40;13.90;1.00
780;DHT22;373;49.342;8.146;2023-05-20T03:17:07;13.60;99.90
780;DHT22;373;49.342;8.146;2023-05-20T03:19:35;13.70;99.90
780;DHT22;373;49.342;8.146;2023-05-20T03:22:03;13.70;1.00
780;DHT22;373;49.342;8.146;2023-05-20T03:24:33;13.80;1.00
780;DHT22;373;49.342;8.146;2023-05-20T03:27:00;14.00;1.00
780;DHT22;373;49.342;8.146;2023-05-20T03:29:27;13.80;1.00
780;DHT22;373;49.342;8.146;2023-05-20T03:31:54;13.90;1.00
780;DHT22;373;49.342;8.146;2023-05-20T03:34:21;13.80;1.00
780;DHT22;373;49.342;8.146;2023-05-20T03:36:50;13.90;1.00
780;DHT22;373;49.342;8.146;2023-05-20T03:39:17;13.90;1.00
780;DHT22;373;49.342;8.146;2023-05-20T03:41:46;14.00;1.00
780;DHT22;373;49.342;8.146;2023-05-20T03:44:15;14.10;1.00
780;DHT22;373;49.342;8.146;2023-05-20T03:46:42;14.10;1.00
780;DHT22;373;49.342;8.146;2023-05-20T03:49:11;14.00;1.00
780;DHT22;373;49.342;8.146;2023-05-20T03:51:40;14.10;1.00
780;DHT22;373;49.342;8.146;2023-05-20T03:54:11;14.00;1.00
780;DHT22;373;49.342;8.146;2023-05-20T03:56:39;13.90;94.00
780;DHT22;373;49.342;8.146;2023-05-20T03:59:07;14.00;1.00
780;DHT22;373;49.342;8.146;2023-05-20T04:01:34;14.20;1.00
780;DHT22;373;49.342;8.146;2023-05-20T04:04:02;14.20;1.00
780;DHT22;373;49.342;8.146;2023-05-20T04:06:29;14.10;1.00
780;DHT22;373;49.342;8.146;2023-05-20T04:08:57;14.20;1.00
780;DHT22;373;49.342;8.146;2023-05-20T04:11:24;14.20;1.00
780;DHT22;373;49.342;8.146;2023-05-20T04:13:51;14.30;1.00
780;DHT22;373;49.342;8.146;2023-05-20T04:16:21;14.30;1.00
780;DHT22;373;49.342;8.146;2023-05-20T04:18:48;14.20;1.00
780;DHT22;373;49.342;8.146;2023-05-20T04:21:17;14.20;1.00
780;DHT22;373;49.342;8.146;2023-05-20T04:23:45;14.30;1.00
780;DHT22;373;49.342;8.146;2023-05-20T04:26:12;14.30;1.00
780;DHT22;373;49.342;8.146;2023-05-20T04:28:39;14.40;1.00
780;DHT22;373;49.342;8.146;2023-05-20T04:31:07;14.40;1.00
780;DHT22;373;49.342;8.146;2023-05-20T04:33:37;14.50;1.00
780;DHT22;373;49.342;8.146;2023-05-20T04:36:06;14.30;1.00
780;DHT22;373;49.342;8.146;2023-05-20T04:38:34;14.40;1.00
780;DHT22;373;49.342;8.146;2023-05-20T04:41:01;14.30;1.00
780;DHT22;373;49.342;8.146;2023-05-20T04:43:28;14.20;99.90
780;DHT22;373;49.342;8.146;2023-05-20T04:45:57;14.30;45.60
780;DHT22;373;49.342;8.146;2023-05-20T04:48:26;14.30;99.90
780;DHT22;373;49.342;8.146;2023-05-20T04:50:55;14.20;99.90
780;DHT22;373;49.342;8.146;2023-05-20T04:53:22;14.30;99.90
780;DHT22;373;49.342;8.146;2023-05-20T04:55:49;14.30;99.90
780;DHT22;373;49.342;8.146;2023-05-20T04:58:18;14.30;99.90
780;DHT22;373;49.342;8.146;2023-05-20T05:00:49;14.40;99.90
780;DHT22;373;49.342;8.146;2023-05-20T05:03:17;14.40;73.50
780;DHT22;373;49.342;8.146;2023-05-20T05:05:44;14.50;99.90
780;DHT22;373;49.342;8.146;2023-05-20T05:08:13;14.50;21.50
780;DHT22;373;49.342;8.146;2023-05-20T05:10:47;14.60;1.00
780;DHT22;373;49.342;8.146;2023-05-20T05:13:14;14.70;1.00
780;DHT22;373;49.342;8.146;2023-05-20T05:15:41;14.80;1.00
780;DHT22;373;49.342;8.146;2023-05-20T05:18:08;14.90;1.00
780;DHT22;373;49.342;8.146;2023-05-20T05:20:36;14.90;1.00
780;DHT22;373;49.342;8.146;2023-05-20T05:23:03;15.00;1.00
780;DHT22;373;49.342;8.146;2023-05-20T05:25:31;15.20;1.00
780;DHT22;373;49.342;8.146;2023-05-20T05:27:59;15.40;1.00
780;DHT22;373;49.342;8.146;2023-05-20T05:30:26;15.50;99.90
780;DHT22;373;49.342;8.146;2023-05-20T05:32:53;15.40;1.00
780;DHT22;373;49.342;8.146;2023-05-20T05:35:21;15.30;99.90
780;DHT22;373;49.342;8.146;2023-05-20T05:37:48;15.40;99.90
780;DHT22;373;49.342;8.146;2023-05-20T05:40:15;15.50;99.90
780;DHT22;373;49.342;8.146;2023-05-20T05:42:44;15.50;99.90
780;DHT22;373;49.342;8.146;2023-05-20T05:45:12;15.50;99.90
780;DHT22;373;49.342;8.146;2023-05-20T05:47:41;15.50;99.90
780;DHT22;373;49.342;8.146;2023-05-20T05:50:09;15.60;99.90
780;DHT22;373;49.342;8.146;2023-05-20T05:52:36;15.80;99.90
780;DHT22;373;49.342;8.146;2023-05-20T05:55:07;16.00;99.90
780;DHT22;373;49.342;8.146;2023-05-20T05:57:35;16.10;99.90
780;DHT22;373;49.342;8.146;2023-05-20T06:00:04;16.20;51.40
780;DHT22;373;49.342;8.146;2023-05-20T06:02:43;15.90;99.90
780;DHT22;373;49.342;8.146;2023-05-20T06:05:13;16.00;35.20
780;DHT22;373;49.342;8.146;2023-05-20T06:07:40;16.00;99.90
780;DHT22;373;49.342;8.146;2023-05-20T06:10:08;16.10;99.90
780;DHT22;373;49.342;8.146;2023-05-20T06:12:35;16.10;91.80
780;DHT22;373;49.342;8.146;2023-05-20T06:15:07;16.20;32.80
780;DHT22;373;49.342;8.146;2023-05-20T06:17:34;16.40;25.60
780;DHT22;373;49.342;8.146;2023-05-20T06:20:01;16.50;1.00
780;DHT22;373;49.342;8.146;2023-05-20T06:22:29;16.60;1.00
780;DHT22;373;49.342;8.146;2023-05-20T06:24:56;17.00;1.00
780;DHT22;373;49.342;8.146;2023-05-20T06:27:26;17.00;1.00
780;DHT22;373;49.342;8.146;2023-05-20T06:29:53;17.30;1.00
780;DHT22;373;49.342;8.146;2023-05-20T06:32:21;17.40;1.00
780;DHT22;373;49.342;8.146;2023-05-20T06:34:49;17.30;1.00
780;DHT22;373;49.342;8.146;2023-05-20T06:37:16;17.20;1.00
780;DHT22;373;49.342;8.146;2023-05-20T06:39:43;17.00;1.00
780;DHT22;373;49.342;8.146;2023-05-20T06:42:12;16.80;1.00
780;DHT22;373;49.342;8.146;2023-05-20T06:44:46;16.90;1.00
780;DHT22;373;49.342;8.146;2023-05-20T06:47:21;16.80;1.00
780;DHT22;373;49.342;8.146;2023-05-20T06:49:50;16.70;1.00
780;DHT22;373;49.342;8.146;2023-05-20T06:52:20;16.90;1.00
780;DHT22;373;49.342;8.146;2023-05-20T06:54:47;17.30;1.00
780;DHT22;373;49.342;8.146;2023-05-20T06:57:14;17.80;1.00
780;DHT22;373;49.342;8.146;2023-05-20T06:59:42;17.70;1.00
780;DHT22;373;49.342;8.146;2023-05-20T07:02:09;17.70;1.00
780;DHT22;373;49.342;8.146;2023-05-20T07:04:38;17.80;1.00
780;DHT22;373;49.342;8.146;2023-05-20T07:07:06;17.70;1.00
780;DHT22;373;49.342;8.146;2023-05-20T07:09:33;17.60;1.00
780;DHT22;373;49.342;8.146;2023-05-20T07:12:00;17.60;1.00
780;DHT22;373;49.342;8.146;2023-05-20T07:14:29;17.00;1.00
780;DHT22;373;49.342;8.146;2023-05-20T07:16:56;16.90;1.00
780;DHT22;373;49.342;8.146;2023-05-20T07:19:23;16.80;1.00
780;DHT22;373;49.342;8.146;2023-05-20T07:21:52;17.10;1.00
780;DHT22;373;49.342;8.146;2023-05-20T07:24:37;17.20;1.00
780;DHT22;373;49.342;8.146;2023-05-20T07:27:04;17.30;1.00
780;DHT22;373;49.342;8.146;2023-05-20T07:29:31;17.20;1.00
780;DHT22;373;49.342;8.146;2023-05-20T07:31:59;17.40;1.00
780;DHT22;373;49.342;8.146;2023-05-20T07:34:26;17.60;1.00
780;DHT22;373;49.342;8.146;2023-05-20T07:36:54;17.20;1.00
780;DHT22;373;49.342;8.146;2023-05-20T07:39:22;17.20;1.00
780;DHT22;373;49.342;8.146;2023-05-20T07:41:50;17.00;1.00
780;DHT22;373;49.342;8.146;2023-05-20T07:44:17;17.20;1.00
780;DHT22;373;49.342;8.146;2023-05-20T07:46:48;17.30;1.00
780;DHT22;373;49.342;8.146;2023-05-20T07:49:15;17.20;1.00
780;DHT22;373;49.342;8.146;2023-05-20T07:51:44;17.40;1.00
780;DHT22;373;49.342;8.146;2023-05-20T07:54:14;17.60;1.00
780;DHT22;373;49.342;8.146;2023-05-20T07:56:45;18.10;1.00
780;DHT22;373;49.342;8.146;2023-05-20T07:59:12;18.30;1.00
780;DHT22;373;49.342;8.146;2023-05-20T08:01:43;18.30;1.00
780;DHT22;373;49.342;8.146;2023-05-20T08:04:13;18.40;1.00
780;DHT22;373;49.342;8.146;2023-05-20T08:06:40;18.40;1.00
780;DHT22;373;49.342;8.146;2023-05-20T08:09:14;18.50;1.00
780;DHT22;373;49.342;8.146;2023-05-20T08:11:47;18.20;1.00
780;DHT22;373;49.342;8.146;2023-05-20T08:14:14;18.20;1.00
780;DHT22;373;49.342;8.146;2023-05-20T08:16:43;18.70;1.00
780;DHT22;373;49.342;8.146;2023-05-20T08:19:10;18.90;99.90
780;DHT22;373;49.342;8.146;2023-05-20T08:21:37;19.30;1.00
780;DHT22;373;49.342;8.146;2023-05-20T08:24:05;19.30;99.90
780;DHT22;373;49.342;8.146;2023-05-20T08:26:38;19.70;99.90
780;DHT22;373;49.342;8.146;2023-05-20T08:29:05;19.90;99.90
780;DHT22;373;49.342;8.146;2023-05-20T08:31:33;19.60;99.90
780;DHT22;373;49.342;8.146;2023-05-20T08:34:00;20.00;99.90
780;DHT22;373;49.342;8.146;2023-05-20T08:36:28;20.50;99.90
780;DHT22;373;49.342;8.146;2023-05-20T08:38:55;20.20;99.90
780;DHT22;373;49.342;8.146;2023-05-20T08:41:22;20.30;99.90
780;DHT22;373;49.342;8.146;2023-05-20T08:43:51;20.20;99.90
780;DHT22;373;49.342;8.146;2023-05-20T08:46:19;20.00;99.90
780;DHT22;373;49.342;8.146;2023-05-20T08:48:48;19.70;99.90
780;DHT22;373;49.342;8.146;2023-05-20T08:51:17;19.70;99.90
780;DHT22;373;49.342;8.146;2023-05-20T08:53:46;20.40;99.90
780;DHT22;373;49.342;8.146;2023-05-20T08:56:14;20.50;99.90
780;DHT22;373;49.342;8.146;2023-05-20T08:58:42;20.60;99.90
780;DHT22;373;49.342;8.146;2023-05-20T09:01:12;21.00;99.90
780;DHT22;373;49.342;8.146;2023-05-20T09:03:39;20.80;99.90
780;DHT22;373;49.342;8.146;2023-05-20T09:06:08;20.50;99.90
780;DHT22;373;49.342;8.146;2023-05-20T09:08:36;20.40;99.90
780;DHT22;373;49.342;8.146;2023-05-20T09:11:03;20.60;99.90
780;DHT22;373;49.342;8.146;2023-05-20T09:13:30;21.00;99.90
780;DHT22;373;49.342;8.146;2023-05-20T09:15:59;21.00;99.90
780;DHT22;373;49.342;8.146;2023-05-20T09:18:28;20.70;99.90
780;DHT22;373;49.342;8.146;2023-05-20T09:20:56;20.90;99.90
780;DHT22;373;49.342;8.146;2023-05-20T09:23:23;21.20;99.90
780;DHT22;373;49.342;8.146;2023-05-20T09:25:52;21.40;99.90
780;DHT22;373;49.342;8.146;2023-05-20T09:28:22;21.10;99.90
780;DHT22;373;49.342;8.146;2023-05-20T09:30:50;21.50;99.90
780;DHT22;373;49.342;8.146;2023-05-20T09:33:17;21.60;99.90
780;DHT22;373;49.342;8.146;2023-05-20T09:35:46;21.60;99.90
780;DHT22;373;49.342;8.146;2023-05-20T09:38:15;21.90;99.90
780;DHT22;373;49.342;8.146;2023-05-20T09:40:44;22.10;99.90
780;DHT22;373;49.342;8.146;2023-05-20T09:43:11;21.60;99.90
780;DHT22;373;49.342;8.146;2023-05-20T09:45:39;21.20;99.90
780;DHT22;373;49.342;8.146;2023-05-20T09:48:07;21.50;99.90
780;DHT22;373;49.342;8.146;2023-05-20T09:50:36;21.70;99.90
780;DHT22;373;49.342;8.146;2023-05-20T09:53:05;21.40;99.90
780;DHT22;373;49.342;8.146;2023-05-20T09:55:37;21.80;99.90
780;DHT22;373;49.342;8.146;2023-05-20T09:58:04;21.70;99.90
780;DHT22;373;49.342;8.146;2023-05-20T10:00:32;21.70;99.90
780;DHT22;373;49.342;8.146;2023-05-20T10:02:59;21.50;99.90
780;DHT22;373;49.342;8.146;2023-05-20T10:05:28;21.50;99.90
780;DHT22;373;49.342;8.146;2023-05-20T10:08:27;21.70;99.90
780;DHT22;373;49.342;8.146;2023-05-20T10:11:04;22.20;99.90
780;DHT22;373;49.342;8.146;2023-05-20T10:13:49;22.60;99.90
780;DHT22;373;49.342;8.146;2023-05-20T10:16:27;22.30;99.90
780;DHT22;373;49.342;8.146;2023-05-20T10:19:03;22.30;99.90
780;DHT22;373;49.342;8.146;2023-05-20T10:21:32;22.30;99.90
780;DHT22;373;49.342;8.146;2023-05-20T10:24:06;22.20;99.90
780;DHT22;373;49.342;8.146;2023-05-20T10:26:34;22.10;99.90
780;DHT22;373;49.342;8.146;2023-05-20T10:29:13;22.20;99.90
780;DHT22;373;49.342;8.146;2023-05-20T10:31:43;22.40;99.90
780;DHT22;373;49.342;8.146;2023-05-20T10:34:14;22.40;99.90
780;DHT22;373;49.342;8.146;2023-05-20T10:36:44;21.90;99.90
780;DHT22;373;49.342;8.146;2023-05-20T10:39:17;22.00;99.90
780;DHT22;373;49.342;8.146;2023-05-20T10:41:44;22.40;99.90
780;DHT22;373;49.342;8.146;2023-05-20T10:44:11;22.70;99.90
780;DHT22;373;49.342;8.146;2023-05-20T10:46:38;23.10;99.90
780;DHT22;373;49.342;8.146;2023-05-20T10:49:16;23.40;99.90
780;DHT22;373;49.342;8.146;2023-05-20T10:51:45;23.40;99.90
780;DHT22;373;49.342;8.146;2023-05-20T10:54:13;23.40;99.90
780;DHT22;373;49.342;8.146;2023-05-20T10:56:50;23.60;99.90
780;DHT22;373;49.342;8.146;2023-05-20T10:59:18;23.60;99.90
780;DHT22;373;49.342;8.146;2023-05-20T11:01:46;23.20;99.90
780;DHT22;373;49.342;8.146;2023-05-20T11:04:14;23.50;99.90
780;DHT22;373;49.342;8.146;2023-05-20T11:06:49;23.20;99.90
780;DHT22;373;49.342;8.146;2023-05-20T11:09:16;22.80;99.90
780;DHT22;373;49.342;8.146;2023-05-20T11:11:45;23.10;99.90
780;DHT22;373;49.342;8.146;2023-05-20T11:14:13;23.20;99.90
780;DHT22;373;49.342;8.146;2023-05-20T11:16:42;22.80;99.90
780;DHT22;373;49.342;8.146;2023-05-20T11:19:13;22.80;99.90
780;DHT22;373;49.342;8.146;2023-05-20T11:21:44;22.90;99.90
780;DHT22;373;49.342;8.146;2023-05-20T11:24:11;22.50;99.90
780;DHT22;373;49.342;8.146;2023-05-20T11:26:38;22.30;99.90
780;DHT22;373;49.342;8.146;2023-05-20T11:29:07;21.90;99.90
780;DHT22;373;49.342;8.146;2023-05-20T11:31:36;21.60;99.90
780;DHT22;373;49.342;8.146;2023-05-20T11:34:03;21.60;99.90
780;DHT22;373;49.342;8.146;2023-05-20T11:36:30;21.60;99.90
780;DHT22;373;49.342;8.146;2023-05-20T11:38:58;21.80;99.90
780;DHT22;373;49.342;8.146;2023-05-20T11:41:27;21.90;99.90
780;DHT22;373;49.342;8.146;2023-05-20T11:43:56;22.20;99.90
780;DHT22;373;49.342;8.146;2023-05-20T11:46:25;22.40;99.90
780;DHT22;373;49.342;8.146;2023-05-20T11:48:53;22.60;99.90
780;DHT22;373;49.342;8.146;2023-05-20T11:51:26;22.30;99.90
780;DHT22;373;49.342;8.146;2023-05-20T11:53:58;22.00;99.90
780;DHT22;373;49.342;8.146;2023-05-20T11:56:27;22.10;99.90
780;DHT22;373;49.342;8.146;2023-05-20T11:58:56;21.90;99.90
780;DHT22;373;49.342;8.146;2023-05-20T12:01:24;21.90;99.90
780;DHT22;373;49.342;8.146;2023-05-20T12:03:52;21.60;99.90
780;DHT22;373;49.342;8.146;2023-05-20T12:06:19;22.20;99.90
780;DHT22;373;49.342;8.146;2023-05-20T12:08:46;22.70;99.90
780;DHT22;373;49.342;8.146;2023-05-20T12:11:13;22.80;99.90
780;DHT22;373;49.342;8.146;2023-05-20T12:13:41;23.00;99.90
780;DHT22;373;49.342;8.146;2023-05-20T12:16:08;22.80;99.90
780;DHT22;373;49.342;8.146;2023-05-20T12:18:36;22.50;99.90
780;DHT22;373;49.342;8.146;2023-05-20T12:21:03;22.40;99.90
780;DHT22;373;49.342;8.146;2023-05-20T12:23:30;22.60;99.90
780;DHT22;373;49.342;8.146;2023-05-20T12:25:59;22.80;99.90
780;DHT22;373;49.342;8.146;2023-05-20T12:28:26;22.90;99.90
780;DHT22;373;49.342;8.146;2023-05-20T12:30:53;23.10;99.90
780;DHT22;373;49.342;8.146;2023-05-20T12:33:20;23.10;99.90
780;DHT22;373;49.342;8.146;2023-05-20T12:35:48;23.30;99.90
780;DHT22;373;49.342;8.146;2023-05-20T12:38:15;23.00;99.90
780;DHT22;373;49.342;8.146;2023-05-20T12:40:42;22.70;99.90
780;DHT22;373;49.342;8.146;2023-05-20T12:43:09;22.70;99.90
780;DHT22;373;49.342;8.146;2023-05-20T12:45:36;22.90;99.90
780;DHT22;373;49.342;8.146;2023-05-20T12:48:04;22.70;99.90
780;DHT22;373;49.342;8.146;2023-05-20T12:50:32;22.40;99.90
780;DHT22;373;49.342;8.146;2023-05-20T12:53:01;22.30;99.90
780;DHT22;373;49.342;8.146;2023-05-20T12:55:28;22.30;99.90
780;DHT22;373;49.342;8.146;2023-05-20T12:57:55;22.20;99.90
780;DHT22;373;49.342;8.146;2023-05-20T13:00:22;22.60;99.90
780;DHT22;373;49.342;8.146;2023-05-20T13:02:49;22.90;99.90
780;DHT22;373;49.342;8.146;2023-05-20T13:05:17;22.90;99.90
780;DHT22;373;49.342;8.146;2023-05-20T13:07:44;23.20;99.90
780;DHT22;373;49.342;8.146;2023-05-20T13:10:12;23.30;99.90
780;DHT22;373;49.342;8.146;2023-05-20T13:12:39;23.20;99.90
780;DHT22;373;49.342;8.146;2023-05-20T13:15:10;22.90;99.90
780;DHT22;373;49.342;8.146;2023-05-20T13:17:38;22.60;99.90
780;DHT22;373;49.342;8.146;2023-05-20T13:20:07;22.50;99.90
780;DHT22;373;49.342;8.146;2023-05-20T13:22:37;22.40;99.90
780;DHT22;373;49.342;8.146;2023-05-20T13:25:05;22.50;99.90
780;DHT22;373;49.342;8.146;2023-05-20T13:27:34;22.40;99.90
780;DHT22;373;49.342;8.146;2023-05-20T13:30:01;22.20;99.90
780;DHT22;373;49.342;8.146;2023-05-20T13:32:29;22.20;99.90
780;DHT22;373;49.342;8.146;2023-05-20T13:34:56;22.50;99.90
780;DHT22;373;49.342;8.146;2023-05-20T13:37:24;22.80;99.90
780;DHT22;373;49.342;8.146;2023-05-20T13:39:51;22.80;99.90
780;DHT22;373;49.342;8.146;2023-05-20T13:42:18;22.80;99.90
780;DHT22;373;49.342;8.146;2023-05-20T13:44:46;23.20;99.90
780;DHT22;373;49.342;8.146;2023-05-20T13:47:13;23.40;99.90
780;DHT22;373;49.342;8.146;2023-05-20T13:49:41;23.40;99.60
780;DHT22;373;49.342;8.146;2023-05-20T13:52:08;23.20;99.90
780;DHT22;373;49.342;8.146;2023-05-20T13:54:35;23.20;99.90
780;DHT22;373;49.342;8.146;2023-05-20T13:57:02;23.10;99.80
780;DHT22;373;49.342;8.146;2023-05-20T13:59:32;22.80;99.90
780;DHT22;373;49.342;8.146;2023-05-20T14:02:01;22.80;99.90
780;DHT22;373;49.342;8.146;2023-05-20T14:04:29;22.80;96.20
780;DHT22;373;49.342;8.146;2023-05-20T14:06:57;23.10;96.20
780;DHT22;373;49.342;8.146;2023-05-20T14:09:25;23.50;96.10
780;DHT22;373;49.342;8.146;2023-05-20T14:11:52;23.30;93.30
780;DHT22;373;49.342;8.146;2023-05-20T14:14:19;23.00;94.00
780;DHT22;373;49.342;8.146;2023-05-20T14:16:46;23.10;97.40
780;DHT22;373;49.342;8.146;2023-05-20T14:19:14;23.40;99.90
780;DHT22;373;49.342;8.146;2023-05-20T14:21:41;23.50;98.80
780;DHT22;373;49.342;8.146;2023-05-20T14:24:08;23.70;98.90
780;DHT22;373;49.342;8.146;2023-05-20T14:26:35;23.50;97.30
780;DHT22;373;49.342;8.146;2023-05-20T14:29:03;23.60;97.40
780;DHT22;373;49.342;8.146;2023-05-20T14:31:30;23.70;96.90
780;DHT22;373;49.342;8.146;2023-05-20T14:33:57;23.40;95.80
780;DHT22;373;49.342;8.146;2023-05-20T14:36:25;23.20;99.30
780;DHT22;373;49.342;8.146;2023-05-20T14:38:52;23.30;99.50
780;DHT22;373;49.342;8.146;2023-05-20T14:41:19;23.50;99.90
780;DHT22;373;49.342;8.146;2023-05-20T14:43:47;23.50;98.40
780;DHT22;373;49.342;8.146;2023-05-20T14:46:14;22.90;99.80
780;DHT22;373;49.342;8.146;2023-05-20T14:48:41;22.90;99.90
780;DHT22;373;49.342;8.146;2023-05-20T14:51:08;22.80;99.90
780;DHT22;373;49.342;8.146;2023-05-20T14:53:39;22.80;99.90
780;DHT22;373;49.342;8.146;2023-05-20T14:56:06;22.80;99.90
780;DHT22;373;49.342;8.146;2023-05-20T14:58:34;22.90;99.90
780;DHT22;373;49.342;8.146;2023-05-20T15:01:01;22.70;99.90
780;DHT22;373;49.342;8.146;2023-05-20T15:03:28;22.50;99.90
780;DHT22;373;49.342;8.146;2023-05-20T15:05:55;22.50;99.90
780;DHT22;373;49.342;8.146;2023-05-20T15:08:22;22.40;99.90
780;DHT22;373;49.342;8.146;2023-05-20T15:10:51;22.60;99.90
780;DHT22;373;49.342;8.146;2023-05-20T15:13:19;22.80;99.90
780;DHT22;373;49.342;8.146;2023-05-20T15:15:46;22.60;99.90
780;DHT22;373;49.342;8.146;2023-05-20T15:18:13;22.70;99.90
780;DHT22;373;49.342;8.146;2023-05-20T15:20:40;22.50;99.90
780;DHT22;373;49.342;8.146;2023-05-20T15:23:07;22.70;99.90
780;DHT22;373;49.342;8.146;2023-05-20T15:25:34;22.70;99.90
780;DHT22;373;49.342;8.146;2023-05-20T15:28:02;22.70;99.90
780;DHT22;373;49.342;8.146;2023-05-20T15:30:29;22.70;99.90
780;DHT22;373;49.342;8.146;2023-05-20T15:32:56;22.60;99.90
780;DHT22;373;49.342;8.146;2023-05-20T15:35:23;22.60;99.90
780;DHT22;373;49.342;8.146;2023-05-20T15:37:50;22.50;99.90
780;DHT22;373;49.342;8.146;2023-05-20T15:40:17;22.40;99.90
780;DHT22;373;49.342;8.146;2023-05-20T15:42:44;22.30;99.90
780;DHT22;373;49.342;8.146;2023-05-20T15:45:13;22.30;99.90
780;DHT22;373;49.342;8.146;2023-05-20T15:47:40;22.20;99.90
780;DHT22;373;49.342;8.146;2023-05-20T15:50:08;22.10;99.90
780;DHT22;373;49.342;8.146;2023-05-20T15:52:36;22.20;99.90
780;DHT22;373;49.342;8.146;2023-05-20T15:55:04;22.00;99.90
780;DHT22;373;49.342;8.146;2023-05-20T15:57:32;22.00;99.90
780;DHT22;373;49.342;8.146;2023-05-20T15:59:59;22.00;99.90
780;DHT22;373;49.342;8.146;2023-05-20T16:02:27;21.80;99.90
780;DHT22;373;49.342;8.146;2023-05-20T16:04:55;21.80;99.90
780;DHT22;373;49.342;8.146;2023-05-20T16:07:22;21.70;99.90
780;DHT22;373;49.342;8.146;2023-05-20T16:09:49;21.70;99.90
780;DHT22;373;49.342;8.146;2023-05-20T16:12:16;21.70;99.90
780;DHT22;373;49.342;8.146;2023-05-20T16:14:43;21.60;99.90
780;DHT22;373;49.342;8.146;2023-05-20T16:17:11;21.80;99.90
780;DHT22;373;49.342;8.146;2023-05-20T16:19:39;21.70;99.90
780;DHT22;373;49.342;8.146;2023-05-20T16:22:06;21.60;99.90
780;DHT22;373;49.342;8.146;2023-05-20T16:24:34;21.70;99.90
780;DHT22;373;49.342;8.146;2023-05-20T16:27:01;21.60;99.90
780;DHT22;373;49.342;8.146;2023-05-20T16:29:28;21.60;99.90
780;DHT22;373;49.342;8.146;2023-05-20T16:31:55;21.40;99.90
780;DHT22;373;49.342;8.146;2023-05-20T16:34:22;21.40;99.90
780;DHT22;373;49.342;8.146;2023-05-20T16:36:50;21.40;99.90
780;DHT22;373;49.342;8.146;2023-05-20T16:39:17;21.40;99.90
780;DHT22;373;49.342;8.146;2023-05-20T16:41:44;21.40;99.90
780;DHT22;373;49.342;8.146;2023-05-20T16:44:11;21.40;99.90
780;DHT22;373;49.342;8.146;2023-05-20T16:46:38;21.30;99.90